Wetterstation Vordersexau
Wetterdaten: Oktober 2014
Datum Temp. A. Feuchte A. Luftdruck Regen Wind Richtung Taupunkt Windchill Windben
01.10.2014 17,8 C 73 % 996,8 hPa 0,0 l/m 0,5 km/h O-NO 12,6 C 17,8 C 0,3 km/h
02.10.2014 15,5 C 78 % 997,4 hPa 0,0 l/m 0,1 km/h N-NO 11,4 C 15,5 C 0,0 km/h
03.10.2014 15,4 C 75 % 994,2 hPa 0,0 l/m 0,0 km/h W 10,5 C 15,4 C 0,0 km/h
04.10.2014 15,2 C 73 % 988,0 hPa 0,0 l/m 0,0 km/h N-NO 9,8 C 15,2 C 0,0 km/h
05.10.2014 15,6 C 78 % 985,6 hPa 0,2 l/m 1,1 km/h W 11,7 C 15,5 C 0,6 km/h
06.10.2014 14,9 C 76 % 982,8 hPa 0,0 l/m 0,2 km/h S-SW 10,5 C 14,9 C 0,1 km/h
07.10.2014 14,2 C 77 % 980,1 hPa 2,5 l/m 9,0 km/h S-SO 8,5 C 12,4 C 5,7 km/h
08.10.2014 17,1 C 80 % 980,6 hPa 0,4 l/m 0,5 km/h N-NO 13,4 C 17,1 C 0,4 km/h
09.10.2014 18,2 C 75 % 980,5 hPa 1,2 l/m 1,2 km/h SO 13,2 C 18,0 C 0,7 km/h
10.10.2014 15,9 C 83 % 985,5 hPa 0,4 l/m 0,0 km/h N-NO 13,0 C 15,9 C 0,0 km/h
11.10.2014 15,5 C 80 % 985,3 hPa 0,6 l/m 1,2 km/h S-SO 11,9 C 15,3 C 0,7 km/h
12.10.2014 11,8 C 83 % 983,1 hPa 0,0 l/m 1,8 km/h NO 9,0 C 11,5 C 1,0 km/h
13.10.2014 14,7 C 78 % 979,7 hPa 0,4 l/m 1,5 km/h O 10,9 C 14,5 C 0,9 km/h
14.10.2014 16,2 C 73 % 980,3 hPa 0,0 l/m 0,8 km/h W-SW 10,9 C 16,2 C 0,4 km/h
15.10.2014 16,5 C 75 % 979,3 hPa 0,0 l/m 1,5 km/h O 11,9 C 16,4 C 0,8 km/h
16.10.2014 15,6 C 83 % 980,7 hPa 1,0 l/m 7,0 km/h S-SO 12,7 C 14,2 C 4,2 km/h
17.10.2014 15,7 C 76 % 985,9 hPa 5,0 l/m 0,2 km/h SO 11,3 C 15,7 C 0,1 km/h
18.10.2014 16,5 C 73 % 991,5 hPa 0,0 l/m 0,1 km/h O-NO 11,2 C 16,5 C 0,1 km/h
19.10.2014 17,5 C 71 % 991,9 hPa 0,0 l/m 2,9 km/h N-NO 11,7 C 17,3 C 1,6 km/h
20.10.2014 17,4 C 78 % 989,8 hPa 4,1 l/m 3,4 km/h O-SO 13,3 C 17,0 C 1,9 km/h
21.10.2014 14,5 C 78 % 984,0 hPa 3,5 l/m 8,5 km/h W-SW 10,6 C 12,7 C 4,8 km/h
22.10.2014 7,4 C 81 % 991,6 hPa 1,0 l/m 3,2 km/h W 4,3 C 6,7 C 2,0 km/h
23.10.2014 9,8 C 78 % 995,3 hPa 0,2 l/m 0,0 km/h O 6,0 C 9,8 C 0,0 km/h
24.10.2014 9,2 C 76 % 992,1 hPa 0,0 l/m 0,1 km/h W 4,9 C 9,2 C 0,1 km/h
25.10.2014 11,3 C 78 % 991,4 hPa 0,0 l/m 0,0 km/h SO 7,5 C 11,3 C 0,0 km/h
26.10.2014 12,9 C 77 % 995,5 hPa 0,0 l/m 0,0 km/h SO 8,9 C 12,9 C 0,0 km/h
27.10.2014 8,2 C 84 % 995,2 hPa 0,0 l/m 0,0 km/h S 5,7 C 8,2 C 0,0 km/h
28.10.2014 10,0 C 76 % 990,5 hPa 0,0 l/m 1,6 km/h SO 5,7 C 9,6 C 0,9 km/h
29.10.2014 10,5 C 76 % 989,6 hPa 0,2 l/m 0,6 km/h SO 6,1 C 10,4 C 0,4 km/h
30.10.2014 12,8 C 77 % 994,6 hPa 0,4 l/m 0,8 km/h SO 8,5 C 12,7 C 0,5 km/h
31.10.2014 12,4 C 76 % 995,5 hPa 0,0 l/m 0,0 km/h NO 7,9 C 12,4 C 0,0 km/h
Min-Datum 07.10.14 07.10.14 21.10.14 15 Tage 01.10.14 - 07.10.14 07.10.14 01.10.14
Min-Zeit 20:53 20:53 17:53 - 00:53 - 20:53 20:53 00:53
Minimum 0,0 C 0 % 976,9 hPa - 0,0 km/h - -60,0 C 0,0 C 0,0 km/h
Max-Datum 09.10.14 02.10.14 02.10.14 17.10.14 12.10.14 - 02.10.14 09.10.14 12.10.14
Max-Zeit 12:53 01:53 09:53 06:53 17:53 - 16:53 12:53 17:53
Maximum 31,8 C 86 % 998,8 hPa 5,0 l/m 42,8 km/h
NO
- 19,1 C 31,8 C 23,8 km/h
NO
Durchschnitt 14,1 C 77 % 988,2 hPa #21,3 l/m 1,5 km/h SO 9,9 C 13,8 C 0,9 km/h

Durchschnitt Minimum Temp.8,1 C
Durchschnitt Maximum Temp.23,3 C
www.sexauwetter.de